sensor_id;sensor_type;location;lat;lon;timestamp;P1;durP1;ratioP1;P2;durP2;ratioP2
39680;SDS011;26327;42.550;23.120;2022-12-05T00:00:14;29.73;;;18.15;;
39680;SDS011;26327;42.550;23.120;2022-12-05T00:02:40;30.58;;;17.35;;
39680;SDS011;26327;42.550;23.120;2022-12-05T00:05:06;31.42;;;17.73;;
39680;SDS011;26327;42.550;23.120;2022-12-05T00:07:32;32.20;;;18.70;;
39680;SDS011;26327;42.550;23.120;2022-12-05T00:09:57;32.35;;;17.00;;
39680;SDS011;26327;42.550;23.120;2022-12-05T00:12:22;30.35;;;18.27;;
39680;SDS011;26327;42.550;23.120;2022-12-05T00:14:48;28.95;;;15.93;;
39680;SDS011;26327;42.550;23.120;2022-12-05T00:17:13;26.17;;;15.63;;
39680;SDS011;26327;42.550;23.120;2022-12-05T00:19:39;36.25;;;17.38;;
39680;SDS011;26327;42.550;23.120;2022-12-05T00:22:04;24.67;;;14.35;;
39680;SDS011;26327;42.550;23.120;2022-12-05T00:24:30;24.73;;;14.15;;
39680;SDS011;26327;42.550;23.120;2022-12-05T00:26:55;24.58;;;13.82;;
39680;SDS011;26327;42.550;23.120;2022-12-05T00:29:20;26.73;;;16.15;;
39680;SDS011;26327;42.550;23.120;2022-12-05T00:31:46;23.10;;;14.55;;
39680;SDS011;26327;42.550;23.120;2022-12-05T00:34:11;27.23;;;15.35;;
39680;SDS011;26327;42.550;23.120;2022-12-05T00:36:37;24.48;;;14.45;;
39680;SDS011;26327;42.550;23.120;2022-12-05T00:39:04;25.90;;;14.80;;
39680;SDS011;26327;42.550;23.120;2022-12-05T00:41:32;28.00;;;15.37;;
39680;SDS011;26327;42.550;23.120;2022-12-05T00:43:59;27.25;;;14.48;;
39680;SDS011;26327;42.550;23.120;2022-12-05T00:46:26;24.13;;;14.15;;
39680;SDS011;26327;42.550;23.120;2022-12-05T00:48:53;26.33;;;15.02;;
39680;SDS011;26327;42.550;23.120;2022-12-05T00:51:21;28.05;;;15.00;;
39680;SDS011;26327;42.550;23.120;2022-12-05T00:53:48;26.83;;;15.10;;
39680;SDS011;26327;42.550;23.120;2022-12-05T00:56:19;23.60;;;14.57;;
39680;SDS011;26327;42.550;23.120;2022-12-05T00:58:46;24.52;;;13.98;;
39680;SDS011;26327;42.550;23.120;2022-12-05T01:01:27;23.08;;;14.35;;
39680;SDS011;26327;42.550;23.120;2022-12-05T01:03:57;23.90;;;14.75;;
39680;SDS011;26327;42.550;23.120;2022-12-05T01:06:23;22.15;;;13.80;;
39680;SDS011;26327;42.550;23.120;2022-12-05T01:08:51;22.88;;;13.95;;
39680;SDS011;26327;42.550;23.120;2022-12-05T01:11:18;23.10;;;14.45;;
39680;SDS011;26327;42.550;23.120;2022-12-05T01:13:44;24.42;;;14.60;;
39680;SDS011;26327;42.550;23.120;2022-12-05T01:16:18;24.55;;;14.88;;
39680;SDS011;26327;42.550;23.120;2022-12-05T01:18:51;23.17;;;14.88;;
39680;SDS011;26327;42.550;23.120;2022-12-05T01:21:17;23.08;;;14.10;;
39680;SDS011;26327;42.550;23.120;2022-12-05T01:23:43;28.60;;;16.30;;
39680;SDS011;26327;42.550;23.120;2022-12-05T01:26:09;23.63;;;14.55;;
39680;SDS011;26327;42.550;23.120;2022-12-05T01:28:37;26.48;;;16.10;;
39680;SDS011;26327;42.550;23.120;2022-12-05T01:31:04;24.50;;;14.57;;
39680;SDS011;26327;42.550;23.120;2022-12-05T01:33:31;24.40;;;14.88;;
39680;SDS011;26327;42.550;23.120;2022-12-05T01:35:57;24.58;;;14.10;;
39680;SDS011;26327;42.550;23.120;2022-12-05T01:38:23;24.92;;;14.88;;
39680;SDS011;26327;42.550;23.120;2022-12-05T01:40:48;25.10;;;15.43;;
39680;SDS011;26327;42.550;23.120;2022-12-05T01:43:14;27.08;;;14.88;;
39680;SDS011;26327;42.550;23.120;2022-12-05T01:45:42;30.08;;;15.45;;
39680;SDS011;26327;42.550;23.120;2022-12-05T01:48:14;24.73;;;16.23;;
39680;SDS011;26327;42.550;23.120;2022-12-05T01:50:43;25.90;;;16.70;;
39680;SDS011;26327;42.550;23.120;2022-12-05T01:53:10;28.73;;;16.88;;
39680;SDS011;26327;42.550;23.120;2022-12-05T01:55:36;26.38;;;16.38;;
39680;SDS011;26327;42.550;23.120;2022-12-05T01:58:03;28.05;;;16.20;;
39680;SDS011;26327;42.550;23.120;2022-12-05T02:00:31;26.75;;;16.38;;
39680;SDS011;26327;42.550;23.120;2022-12-05T02:02:58;28.70;;;16.35;;
39680;SDS011;26327;42.550;23.120;2022-12-05T02:05:28;41.05;;;18.10;;
39680;SDS011;26327;42.550;23.120;2022-12-05T02:07:58;40.25;;;20.00;;
39680;SDS011;26327;42.550;23.120;2022-12-05T02:10:26;35.90;;;20.58;;
39680;SDS011;26327;42.550;23.120;2022-12-05T02:12:54;28.45;;;16.63;;
39680;SDS011;26327;42.550;23.120;2022-12-05T02:15:42;27.73;;;16.00;;
39680;SDS011;26327;42.550;23.120;2022-12-05T02:21:15;24.38;;;15.05;;
39680;SDS011;26327;42.550;23.120;2022-12-05T02:31:56;26.40;;;14.57;;
39680;SDS011;26327;42.550;23.120;2022-12-05T02:34:44;23.70;;;13.73;;
39680;SDS011;26327;42.550;23.120;2022-12-05T02:37:31;23.83;;;14.15;;
39680;SDS011;26327;42.550;23.120;2022-12-05T02:40:23;25.70;;;14.02;;
39680;SDS011;26327;42.550;23.120;2022-12-05T02:48:38;24.35;;;14.45;;
39680;SDS011;26327;42.550;23.120;2022-12-05T02:51:07;25.20;;;14.65;;
39680;SDS011;26327;42.550;23.120;2022-12-05T02:53:36;26.27;;;15.20;;
39680;SDS011;26327;42.550;23.120;2022-12-05T02:56:03;27.27;;;15.27;;
39680;SDS011;26327;42.550;23.120;2022-12-05T02:58:31;26.20;;;14.88;;
39680;SDS011;26327;42.550;23.120;2022-12-05T03:01:04;36.38;;;16.35;;
39680;SDS011;26327;42.550;23.120;2022-12-05T03:03:30;45.63;;;17.80;;
39680;SDS011;26327;42.550;23.120;2022-12-05T03:06:00;44.63;;;18.38;;
39680;SDS011;26327;42.550;23.120;2022-12-05T03:08:32;43.80;;;19.65;;
39680;SDS011;26327;42.550;23.120;2022-12-05T03:11:04;28.55;;;14.77;;
39680;SDS011;26327;42.550;23.120;2022-12-05T03:13:35;26.52;;;14.95;;
39680;SDS011;26327;42.550;23.120;2022-12-05T03:16:09;24.63;;;13.85;;
39680;SDS011;26327;42.550;23.120;2022-12-05T03:18:44;26.13;;;14.27;;
39680;SDS011;26327;42.550;23.120;2022-12-05T03:21:36;24.35;;;14.32;;
39680;SDS011;26327;42.550;23.120;2022-12-05T03:24:02;28.65;;;16.33;;
39680;SDS011;26327;42.550;23.120;2022-12-05T03:26:35;31.90;;;17.45;;
39680;SDS011;26327;42.550;23.120;2022-12-05T03:34:31;24.90;;;14.90;;
39680;SDS011;26327;42.550;23.120;2022-12-05T03:40:01;22.27;;;14.20;;
39680;SDS011;26327;42.550;23.120;2022-12-05T03:42:38;23.08;;;13.18;;
39680;SDS011;26327;42.550;23.120;2022-12-05T03:45:11;25.58;;;13.48;;
39680;SDS011;26327;42.550;23.120;2022-12-05T03:47:45;24.17;;;14.23;;
39680;SDS011;26327;42.550;23.120;2022-12-05T03:50:24;23.67;;;14.02;;
39680;SDS011;26327;42.550;23.120;2022-12-05T03:53:04;21.80;;;13.90;;
39680;SDS011;26327;42.550;23.120;2022-12-05T03:55:36;22.75;;;13.90;;
39680;SDS011;26327;42.550;23.120;2022-12-05T03:58:26;31.45;;;18.77;;
39680;SDS011;26327;42.550;23.120;2022-12-05T04:00:57;25.60;;;13.95;;
39680;SDS011;26327;42.550;23.120;2022-12-05T04:03:28;25.05;;;15.02;;
39680;SDS011;26327;42.550;23.120;2022-12-05T04:06:16;29.77;;;15.98;;
39680;SDS011;26327;42.550;23.120;2022-12-05T04:08:51;22.40;;;12.52;;
39680;SDS011;26327;42.550;23.120;2022-12-05T04:11:19;20.17;;;12.43;;
39680;SDS011;26327;42.550;23.120;2022-12-05T04:13:51;26.58;;;15.98;;
39680;SDS011;26327;42.550;23.120;2022-12-05T04:16:19;22.27;;;12.38;;
39680;SDS011;26327;42.550;23.120;2022-12-05T04:19:09;26.40;;;15.73;;
39680;SDS011;26327;42.550;23.120;2022-12-05T04:21:43;21.02;;;12.43;;
39680;SDS011;26327;42.550;23.120;2022-12-05T04:24:16;22.42;;;12.27;;
39680;SDS011;26327;42.550;23.120;2022-12-05T04:27:09;20.55;;;11.95;;
39680;SDS011;26327;42.550;23.120;2022-12-05T04:29:40;25.73;;;14.65;;
39680;SDS011;26327;42.550;23.120;2022-12-05T04:32:11;29.00;;;17.50;;
39680;SDS011;26327;42.550;23.120;2022-12-05T04:34:38;35.63;;;21.80;;
39680;SDS011;26327;42.550;23.120;2022-12-05T04:37:11;40.13;;;24.40;;
39680;SDS011;26327;42.550;23.120;2022-12-05T04:39:40;29.73;;;15.32;;
39680;SDS011;26327;42.550;23.120;2022-12-05T04:42:13;24.30;;;13.25;;
39680;SDS011;26327;42.550;23.120;2022-12-05T04:44:43;20.67;;;12.32;;
39680;SDS011;26327;42.550;23.120;2022-12-05T04:47:13;17.98;;;11.15;;
39680;SDS011;26327;42.550;23.120;2022-12-05T04:49:40;19.35;;;11.77;;
39680;SDS011;26327;42.550;23.120;2022-12-05T04:52:09;20.20;;;11.82;;
39680;SDS011;26327;42.550;23.120;2022-12-05T04:54:40;19.20;;;11.38;;
39680;SDS011;26327;42.550;23.120;2022-12-05T04:57:15;19.52;;;10.95;;
39680;SDS011;26327;42.550;23.120;2022-12-05T04:59:41;19.35;;;11.35;;
39680;SDS011;26327;42.550;23.120;2022-12-05T05:02:08;20.15;;;12.02;;
39680;SDS011;26327;42.550;23.120;2022-12-05T05:04:37;21.55;;;13.65;;
39680;SDS011;26327;42.550;23.120;2022-12-05T05:07:08;24.73;;;13.40;;
39680;SDS011;26327;42.550;23.120;2022-12-05T05:09:35;22.55;;;13.35;;
39680;SDS011;26327;42.550;23.120;2022-12-05T05:12:01;21.20;;;12.63;;
39680;SDS011;26327;42.550;23.120;2022-12-05T05:14:27;22.25;;;12.90;;
39680;SDS011;26327;42.550;23.120;2022-12-05T05:16:52;23.63;;;14.02;;
39680;SDS011;26327;42.550;23.120;2022-12-05T05:19:18;25.83;;;14.48;;
39680;SDS011;26327;42.550;23.120;2022-12-05T05:21:43;29.65;;;16.02;;
39680;SDS011;26327;42.550;23.120;2022-12-05T05:24:09;27.65;;;16.15;;
39680;SDS011;26327;42.550;23.120;2022-12-05T05:26:37;31.58;;;18.15;;
39680;SDS011;26327;42.550;23.120;2022-12-05T05:29:04;30.00;;;18.13;;
39680;SDS011;26327;42.550;23.120;2022-12-05T05:31:31;35.40;;;18.85;;
39680;SDS011;26327;42.550;23.120;2022-12-05T05:33:57;34.92;;;18.05;;
39680;SDS011;26327;42.550;23.120;2022-12-05T05:36:23;33.85;;;19.52;;
39680;SDS011;26327;42.550;23.120;2022-12-05T05:38:51;32.53;;;18.25;;
39680;SDS011;26327;42.550;23.120;2022-12-05T05:41:25;38.33;;;20.20;;
39680;SDS011;26327;42.550;23.120;2022-12-05T05:43:53;36.20;;;18.40;;
39680;SDS011;26327;42.550;23.120;2022-12-05T05:46:20;30.98;;;17.17;;
39680;SDS011;26327;42.550;23.120;2022-12-05T05:48:47;31.58;;;16.70;;
39680;SDS011;26327;42.550;23.120;2022-12-05T05:51:13;32.47;;;18.60;;
39680;SDS011;26327;42.550;23.120;2022-12-05T05:53:40;37.40;;;21.10;;
39680;SDS011;26327;42.550;23.120;2022-12-05T05:56:10;43.30;;;22.63;;
39680;SDS011;26327;42.550;23.120;2022-12-05T05:58:38;30.92;;;18.27;;
39680;SDS011;26327;42.550;23.120;2022-12-05T06:03:49;35.65;;;19.20;;
39680;SDS011;26327;42.550;23.120;2022-12-05T06:06:15;36.35;;;20.73;;
39680;SDS011;26327;42.550;23.120;2022-12-05T06:08:41;32.80;;;18.33;;
39680;SDS011;26327;42.550;23.120;2022-12-05T06:11:12;31.73;;;16.58;;
39680;SDS011;26327;42.550;23.120;2022-12-05T06:13:39;31.15;;;16.85;;
39680;SDS011;26327;42.550;23.120;2022-12-05T06:16:06;34.42;;;18.30;;
39680;SDS011;26327;42.550;23.120;2022-12-05T06:18:33;36.08;;;18.55;;
39680;SDS011;26327;42.550;23.120;2022-12-05T06:20:58;36.38;;;20.25;;
39680;SDS011;26327;42.550;23.120;2022-12-05T06:23:24;34.97;;;18.90;;
39680;SDS011;26327;42.550;23.120;2022-12-05T06:25:50;40.17;;;19.52;;
39680;SDS011;26327;42.550;23.120;2022-12-05T06:28:19;47.90;;;21.60;;
39680;SDS011;26327;42.550;23.120;2022-12-05T06:30:46;37.13;;;20.42;;
39680;SDS011;26327;42.550;23.120;2022-12-05T06:33:12;35.38;;;18.08;;
39680;SDS011;26327;42.550;23.120;2022-12-05T06:35:37;31.35;;;17.52;;
39680;SDS011;26327;42.550;23.120;2022-12-05T06:38:03;34.08;;;17.65;;
39680;SDS011;26327;42.550;23.120;2022-12-05T06:40:30;30.98;;;16.77;;
39680;SDS011;26327;42.550;23.120;2022-12-05T06:42:55;32.67;;;16.88;;
39680;SDS011;26327;42.550;23.120;2022-12-05T06:45:21;30.85;;;17.45;;
39680;SDS011;26327;42.550;23.120;2022-12-05T06:47:46;35.40;;;17.88;;
39680;SDS011;26327;42.550;23.120;2022-12-05T06:50:12;30.95;;;17.27;;
39680;SDS011;26327;42.550;23.120;2022-12-05T06:52:37;33.20;;;16.85;;
39680;SDS011;26327;42.550;23.120;2022-12-05T06:55:02;28.75;;;15.60;;
39680;SDS011;26327;42.550;23.120;2022-12-05T06:57:29;30.30;;;16.55;;
39680;SDS011;26327;42.550;23.120;2022-12-05T06:59:54;27.92;;;16.52;;
39680;SDS011;26327;42.550;23.120;2022-12-05T07:02:40;44.88;;;22.83;;
39680;SDS011;26327;42.550;23.120;2022-12-05T07:05:08;46.50;;;22.60;;
39680;SDS011;26327;42.550;23.120;2022-12-05T07:07:35;39.67;;;21.90;;
39680;SDS011;26327;42.550;23.120;2022-12-05T07:10:00;34.78;;;20.45;;
39680;SDS011;26327;42.550;23.120;2022-12-05T07:12:26;39.97;;;21.45;;
39680;SDS011;26327;42.550;23.120;2022-12-05T07:14:51;40.95;;;21.42;;
39680;SDS011;26327;42.550;23.120;2022-12-05T07:17:17;41.83;;;21.60;;
39680;SDS011;26327;42.550;23.120;2022-12-05T07:19:45;39.45;;;22.40;;
39680;SDS011;26327;42.550;23.120;2022-12-05T07:22:12;38.35;;;22.67;;
39680;SDS011;26327;42.550;23.120;2022-12-05T07:24:37;37.58;;;21.75;;
39680;SDS011;26327;42.550;23.120;2022-12-05T07:27:02;31.50;;;18.42;;
39680;SDS011;26327;42.550;23.120;2022-12-05T07:29:28;32.50;;;18.17;;
39680;SDS011;26327;42.550;23.120;2022-12-05T07:31:53;59.97;;;34.20;;
39680;SDS011;26327;42.550;23.120;2022-12-05T07:34:19;111.93;;;74.10;;
39680;SDS011;26327;42.550;23.120;2022-12-05T07:36:44;74.47;;;34.10;;
39680;SDS011;26327;42.550;23.120;2022-12-05T07:39:09;36.72;;;23.13;;
39680;SDS011;26327;42.550;23.120;2022-12-05T07:41:35;39.97;;;24.77;;
39680;SDS011;26327;42.550;23.120;2022-12-05T07:44:01;40.15;;;26.15;;
39680;SDS011;26327;42.550;23.120;2022-12-05T07:46:27;38.13;;;22.50;;
39680;SDS011;26327;42.550;23.120;2022-12-05T07:48:53;37.63;;;23.25;;
39680;SDS011;26327;42.550;23.120;2022-12-05T07:51:18;44.70;;;29.25;;
39680;SDS011;26327;42.550;23.120;2022-12-05T07:53:44;43.80;;;27.58;;
39680;SDS011;26327;42.550;23.120;2022-12-05T07:56:11;48.33;;;31.27;;
39680;SDS011;26327;42.550;23.120;2022-12-05T07:58:40;36.08;;;23.60;;
39680;SDS011;26327;42.550;23.120;2022-12-05T08:01:07;46.80;;;25.67;;
39680;SDS011;26327;42.550;23.120;2022-12-05T08:03:37;48.95;;;31.17;;
39680;SDS011;26327;42.550;23.120;2022-12-05T08:06:03;50.70;;;30.42;;
39680;SDS011;26327;42.550;23.120;2022-12-05T08:08:30;56.78;;;33.42;;
39680;SDS011;26327;42.550;23.120;2022-12-05T08:10:55;70.88;;;40.85;;
39680;SDS011;26327;42.550;23.120;2022-12-05T08:13:27;126.63;;;65.40;;
39680;SDS011;26327;42.550;23.120;2022-12-05T08:15:53;53.55;;;31.13;;
39680;SDS011;26327;42.550;23.120;2022-12-05T08:18:19;61.30;;;36.75;;
39680;SDS011;26327;42.550;23.120;2022-12-05T08:20:44;82.50;;;47.95;;
39680;SDS011;26327;42.550;23.120;2022-12-05T08:23:10;56.20;;;33.08;;
39680;SDS011;26327;42.550;23.120;2022-12-05T08:25:35;61.88;;;36.53;;
39680;SDS011;26327;42.550;23.120;2022-12-05T08:28:00;54.33;;;31.95;;
39680;SDS011;26327;42.550;23.120;2022-12-05T08:30:26;48.58;;;29.98;;
39680;SDS011;26327;42.550;23.120;2022-12-05T08:32:51;53.53;;;32.45;;
39680;SDS011;26327;42.550;23.120;2022-12-05T08:35:16;41.55;;;25.13;;
39680;SDS011;26327;42.550;23.120;2022-12-05T08:37:42;41.38;;;24.95;;
39680;SDS011;26327;42.550;23.120;2022-12-05T08:40:07;51.08;;;32.38;;
39680;SDS011;26327;42.550;23.120;2022-12-05T08:42:33;41.95;;;24.80;;
39680;SDS011;26327;42.550;23.120;2022-12-05T08:44:58;48.33;;;29.63;;
39680;SDS011;26327;42.550;23.120;2022-12-05T08:47:24;56.88;;;34.05;;
39680;SDS011;26327;42.550;23.120;2022-12-05T08:49:49;45.65;;;28.25;;
39680;SDS011;26327;42.550;23.120;2022-12-05T08:52:15;47.30;;;28.10;;
39680;SDS011;26327;42.550;23.120;2022-12-05T08:54:40;43.75;;;26.77;;
39680;SDS011;26327;42.550;23.120;2022-12-05T08:57:05;47.83;;;28.38;;
39680;SDS011;26327;42.550;23.120;2022-12-05T08:59:31;57.83;;;33.30;;
39680;SDS011;26327;42.550;23.120;2022-12-05T09:01:56;49.28;;;32.55;;
39680;SDS011;26327;42.550;23.120;2022-12-05T09:04:22;54.45;;;36.22;;
39680;SDS011;26327;42.550;23.120;2022-12-05T09:06:47;43.53;;;27.80;;
39680;SDS011;26327;42.550;23.120;2022-12-05T09:09:12;49.22;;;27.27;;
39680;SDS011;26327;42.550;23.120;2022-12-05T09:11:39;44.05;;;25.88;;
39680;SDS011;26327;42.550;23.120;2022-12-05T09:14:10;97.57;;;31.92;;
39680;SDS011;26327;42.550;23.120;2022-12-05T09:16:36;61.97;;;34.78;;
39680;SDS011;26327;42.550;23.120;2022-12-05T09:19:03;80.00;;;41.08;;
39680;SDS011;26327;42.550;23.120;2022-12-05T09:21:29;115.07;;;36.83;;
39680;SDS011;26327;42.550;23.120;2022-12-05T09:23:59;66.93;;;32.70;;
39680;SDS011;26327;42.550;23.120;2022-12-05T09:26:25;58.63;;;32.22;;
39680;SDS011;26327;42.550;23.120;2022-12-05T09:28:51;67.70;;;35.55;;
39680;SDS011;26327;42.550;23.120;2022-12-05T09:31:21;49.47;;;26.60;;
39680;SDS011;26327;42.550;23.120;2022-12-05T09:33:49;49.67;;;26.80;;
39680;SDS011;26327;42.550;23.120;2022-12-05T09:36:19;43.95;;;24.67;;
39680;SDS011;26327;42.550;23.120;2022-12-05T09:38:47;44.22;;;25.13;;
39680;SDS011;26327;42.550;23.120;2022-12-05T09:49:11;80.60;;;47.20;;
39680;SDS011;26327;42.550;23.120;2022-12-05T09:51:38;164.40;;;91.32;;
39680;SDS011;26327;42.550;23.120;2022-12-05T09:54:09;88.60;;;50.45;;
39680;SDS011;26327;42.550;23.120;2022-12-05T09:56:36;59.65;;;34.47;;
39680;SDS011;26327;42.550;23.120;2022-12-05T09:59:02;48.75;;;29.65;;
39680;SDS011;26327;42.550;23.120;2022-12-05T10:01:36;43.78;;;25.42;;
39680;SDS011;26327;42.550;23.120;2022-12-05T10:24:03;55.63;;;32.13;;
39680;SDS011;26327;42.550;23.120;2022-12-05T10:26:38;46.40;;;26.50;;
39680;SDS011;26327;42.550;23.120;2022-12-05T10:34:57;40.30;;;24.20;;
39680;SDS011;26327;42.550;23.120;2022-12-05T10:37:31;48.22;;;25.67;;
39680;SDS011;26327;42.550;23.120;2022-12-05T10:39:56;51.05;;;28.23;;
39680;SDS011;26327;42.550;23.120;2022-12-05T10:42:26;45.58;;;26.95;;
39680;SDS011;26327;42.550;23.120;2022-12-05T10:44:56;45.17;;;27.15;;
39680;SDS011;26327;42.550;23.120;2022-12-05T10:47:24;43.97;;;25.42;;
39680;SDS011;26327;42.550;23.120;2022-12-05T10:49:50;47.30;;;24.50;;
39680;SDS011;26327;42.550;23.120;2022-12-05T10:52:17;48.08;;;25.05;;
39680;SDS011;26327;42.550;23.120;2022-12-05T10:54:46;42.45;;;25.67;;
39680;SDS011;26327;42.550;23.120;2022-12-05T10:57:34;38.40;;;21.70;;
39680;SDS011;26327;42.550;23.120;2022-12-05T11:00:19;39.75;;;22.63;;
39680;SDS011;26327;42.550;23.120;2022-12-05T11:02:47;35.38;;;22.52;;
39680;SDS011;26327;42.550;23.120;2022-12-05T11:05:13;43.17;;;23.55;;
39680;SDS011;26327;42.550;23.120;2022-12-05T11:10:24;40.30;;;20.45;;
39680;SDS011;26327;42.550;23.120;2022-12-05T11:12:57;45.83;;;25.75;;
39680;SDS011;26327;42.550;23.120;2022-12-05T11:17:55;58.80;;;31.70;;
39680;SDS011;26327;42.550;23.120;2022-12-05T11:22:48;64.07;;;35.38;;
39680;SDS011;26327;42.550;23.120;2022-12-05T11:25:28;85.20;;;45.53;;
39680;SDS011;26327;42.550;23.120;2022-12-05T11:28:00;64.47;;;36.38;;
39680;SDS011;26327;42.550;23.120;2022-12-05T11:33:36;43.33;;;26.20;;
39680;SDS011;26327;42.550;23.120;2022-12-05T11:36:18;57.53;;;32.08;;
39680;SDS011;26327;42.550;23.120;2022-12-05T11:38:47;70.90;;;39.72;;
39680;SDS011;26327;42.550;23.120;2022-12-05T11:49:14;75.03;;;39.53;;
39680;SDS011;26327;42.550;23.120;2022-12-05T11:54:52;75.07;;;40.25;;
39680;SDS011;26327;42.550;23.120;2022-12-05T11:57:27;73.65;;;44.45;;
39680;SDS011;26327;42.550;23.120;2022-12-05T12:11:21;71.85;;;41.40;;
39680;SDS011;26327;42.550;23.120;2022-12-05T12:16:39;58.70;;;33.45;;
39680;SDS011;26327;42.550;23.120;2022-12-05T12:21:59;66.35;;;38.45;;
39680;SDS011;26327;42.550;23.120;2022-12-05T12:30:11;36.70;;;21.90;;
39680;SDS011;26327;42.550;23.120;2022-12-05T12:32:49;64.00;;;32.17;;
39680;SDS011;26327;42.550;23.120;2022-12-05T12:38:08;41.25;;;21.55;;
39680;SDS011;26327;42.550;23.120;2022-12-05T12:40:42;38.10;;;22.20;;
39680;SDS011;26327;42.550;23.120;2022-12-05T12:51:37;55.00;;;28.30;;
39680;SDS011;26327;42.550;23.120;2022-12-05T12:56:53;47.30;;;25.42;;
39680;SDS011;26327;42.550;23.120;2022-12-05T12:59:29;69.60;;;35.10;;
39680;SDS011;26327;42.550;23.120;2022-12-05T13:02:17;56.65;;;30.63;;
39680;SDS011;26327;42.550;23.120;2022-12-05T13:04:53;43.92;;;24.25;;
39680;SDS011;26327;42.550;23.120;2022-12-05T13:07:34;48.15;;;24.67;;
39680;SDS011;26327;42.550;23.120;2022-12-05T13:12:31;52.17;;;28.08;;
39680;SDS011;26327;42.550;23.120;2022-12-05T13:15:06;44.92;;;25.35;;
39680;SDS011;26327;42.550;23.120;2022-12-05T13:17:38;54.35;;;27.98;;
39680;SDS011;26327;42.550;23.120;2022-12-05T13:20:12;44.80;;;25.90;;
39680;SDS011;26327;42.550;23.120;2022-12-05T13:22:44;107.47;;;34.20;;
39680;SDS011;26327;42.550;23.120;2022-12-05T13:25:12;46.63;;;26.20;;
39680;SDS011;26327;42.550;23.120;2022-12-05T13:27:58;49.25;;;26.25;;
39680;SDS011;26327;42.550;23.120;2022-12-05T13:30:25;40.67;;;23.23;;
39680;SDS011;26327;42.550;23.120;2022-12-05T13:32:59;68.03;;;35.55;;
39680;SDS011;26327;42.550;23.120;2022-12-05T13:35:31;51.33;;;28.60;;
39680;SDS011;26327;42.550;23.120;2022-12-05T13:38:21;58.85;;;30.05;;
39680;SDS011;26327;42.550;23.120;2022-12-05T13:41:09;55.72;;;29.83;;
39680;SDS011;26327;42.550;23.120;2022-12-05T13:43:53;40.97;;;25.35;;
39680;SDS011;26327;42.550;23.120;2022-12-05T13:46:27;44.85;;;26.25;;
39680;SDS011;26327;42.550;23.120;2022-12-05T13:49:00;55.42;;;28.45;;
39680;SDS011;26327;42.550;23.120;2022-12-05T13:51:36;42.17;;;25.88;;
39680;SDS011;26327;42.550;23.120;2022-12-05T13:54:39;52.78;;;27.27;;
39680;SDS011;26327;42.550;23.120;2022-12-05T13:56:59;55.67;;;30.55;;
39680;SDS011;26327;42.550;23.120;2022-12-05T14:02:51;35.55;;;20.90;;
39680;SDS011;26327;42.550;23.120;2022-12-05T14:07:49;35.10;;;21.27;;
39680;SDS011;26327;42.550;23.120;2022-12-05T14:12:58;64.28;;;35.78;;
39680;SDS011;26327;42.550;23.120;2022-12-05T14:17:55;80.30;;;41.22;;
39680;SDS011;26327;42.550;23.120;2022-12-05T14:31:03;45.85;;;25.30;;
39680;SDS011;26327;42.550;23.120;2022-12-05T14:34:02;31.20;;;21.83;;
39680;SDS011;26327;42.550;23.120;2022-12-05T14:36:30;35.80;;;23.00;;
39680;SDS011;26327;42.550;23.120;2022-12-05T14:38:57;30.90;;;21.52;;
39680;SDS011;26327;42.550;23.120;2022-12-05T14:41:25;37.00;;;23.92;;
39680;SDS011;26327;42.550;23.120;2022-12-05T14:43:57;51.50;;;30.45;;
39680;SDS011;26327;42.550;23.120;2022-12-05T14:48:53;44.55;;;20.52;;
39680;SDS011;26327;42.550;23.120;2022-12-05T14:53:54;40.17;;;23.25;;
39680;SDS011;26327;42.550;23.120;2022-12-05T14:56:22;48.22;;;28.42;;
39680;SDS011;26327;42.550;23.120;2022-12-05T14:59:01;45.85;;;28.77;;
39680;SDS011;26327;42.550;23.120;2022-12-05T15:06:41;36.35;;;21.13;;
39680;SDS011;26327;42.550;23.120;2022-12-05T15:09:20;37.78;;;19.73;;
39680;SDS011;26327;42.550;23.120;2022-12-05T15:12:13;30.92;;;18.52;;
39680;SDS011;26327;42.550;23.120;2022-12-05T15:14:55;38.78;;;20.48;;
39680;SDS011;26327;42.550;23.120;2022-12-05T15:17:29;44.20;;;26.50;;
39680;SDS011;26327;42.550;23.120;2022-12-05T15:20:07;31.45;;;16.45;;
39680;SDS011;26327;42.550;23.120;2022-12-05T15:22:40;28.80;;;15.07;;
39680;SDS011;26327;42.550;23.120;2022-12-05T15:25:13;29.25;;;16.08;;
39680;SDS011;26327;42.550;23.120;2022-12-05T15:27:53;33.08;;;19.55;;
39680;SDS011;26327;42.550;23.120;2022-12-05T15:30:30;28.48;;;15.13;;
39680;SDS011;26327;42.550;23.120;2022-12-05T15:32:59;33.03;;;19.88;;
39680;SDS011;26327;42.550;23.120;2022-12-05T15:35:25;30.90;;;15.38;;
39680;SDS011;26327;42.550;23.120;2022-12-05T15:37:57;26.05;;;15.05;;
39680;SDS011;26327;42.550;23.120;2022-12-05T15:40:31;29.58;;;16.40;;
39680;SDS011;26327;42.550;23.120;2022-12-05T15:43:01;30.75;;;18.20;;
39680;SDS011;26327;42.550;23.120;2022-12-05T15:48:30;38.42;;;20.88;;
39680;SDS011;26327;42.550;23.120;2022-12-05T15:50:55;59.60;;;35.17;;
39680;SDS011;26327;42.550;23.120;2022-12-05T15:53:31;48.13;;;29.42;;
39680;SDS011;26327;42.550;23.120;2022-12-05T15:58:40;54.65;;;30.73;;
39680;SDS011;26327;42.550;23.120;2022-12-05T16:01:17;72.75;;;42.47;;
39680;SDS011;26327;42.550;23.120;2022-12-05T16:06:24;99.20;;;44.97;;
39680;SDS011;26327;42.550;23.120;2022-12-05T16:08:52;143.57;;;64.28;;
39680;SDS011;26327;42.550;23.120;2022-12-05T16:11:18;109.43;;;59.60;;
39680;SDS011;26327;42.550;23.120;2022-12-05T16:13:54;85.13;;;51.28;;
39680;SDS011;26327;42.550;23.120;2022-12-05T16:16:23;65.53;;;42.47;;
39680;SDS011;26327;42.550;23.120;2022-12-05T16:18:53;75.07;;;41.95;;
39680;SDS011;26327;42.550;23.120;2022-12-05T16:21:27;97.18;;;49.75;;
39680;SDS011;26327;42.550;23.120;2022-12-05T16:23:58;105.93;;;50.55;;
39680;SDS011;26327;42.550;23.120;2022-12-05T16:26:25;112.93;;;54.70;;
39680;SDS011;26327;42.550;23.120;2022-12-05T16:28:58;86.60;;;41.35;;
39680;SDS011;26327;42.550;23.120;2022-12-05T16:31:26;64.50;;;33.33;;
39680;SDS011;26327;42.550;23.120;2022-12-05T16:34:00;106.53;;;56.05;;
39680;SDS011;26327;42.550;23.120;2022-12-05T16:36:28;104.82;;;56.58;;
39680;SDS011;26327;42.550;23.120;2022-12-05T16:39:11;72.57;;;46.20;;
39680;SDS011;26327;42.550;23.120;2022-12-05T16:41:39;79.47;;;46.92;;
39680;SDS011;26327;42.550;23.120;2022-12-05T16:44:08;77.40;;;48.20;;
39680;SDS011;26327;42.550;23.120;2022-12-05T16:46:53;48.45;;;27.55;;
39680;SDS011;26327;42.550;23.120;2022-12-05T16:51:58;42.90;;;24.52;;
39680;SDS011;26327;42.550;23.120;2022-12-05T16:54:26;45.38;;;25.75;;
39680;SDS011;26327;42.550;23.120;2022-12-05T16:56:52;52.78;;;33.03;;
39680;SDS011;26327;42.550;23.120;2022-12-05T16:59:22;90.80;;;45.17;;
39680;SDS011;26327;42.550;23.120;2022-12-05T17:01:51;72.72;;;37.70;;
39680;SDS011;26327;42.550;23.120;2022-12-05T17:04:16;56.20;;;31.77;;
39680;SDS011;26327;42.550;23.120;2022-12-05T17:06:41;44.63;;;26.35;;
39680;SDS011;26327;42.550;23.120;2022-12-05T17:09:07;60.35;;;33.10;;